sensor_id;sensor_type;location;lat;lon;timestamp;P1;P2;P0
76043;PMS7003;64740;34.694;33.088;2022-12-18T00:05:00;23.4;20.9;14.5
76043;PMS7003;64740;34.694;33.088;2022-12-18T00:09:58;24.4;22;15.1
76043;PMS7003;64740;34.694;33.088;2022-12-18T00:14:36;25.1;21;14.4
76043;PMS7003;64740;34.694;33.088;2022-12-18T00:20:10;21.3;18.7;13.3
76043;PMS7003;64740;34.694;33.088;2022-12-18T00:25:03;21.3;18.7;13.3
76043;PMS7003;64740;34.694;33.088;2022-12-18T00:29:48;22.2;19.3;13.7
76043;PMS7003;64740;34.694;33.088;2022-12-18T00:34:44;19.1;17.1;12.6
76043;PMS7003;64740;34.694;33.088;2022-12-18T00:39:58;19.3;16.7;11.6
76043;PMS7003;64740;34.694;33.088;2022-12-18T00:45:10;17.9;15;11
76043;PMS7003;64740;34.694;33.088;2022-12-18T00:49:34;17.9;15;11
76043;PMS7003;64740;34.694;33.088;2022-12-18T00:55:00;18.9;16.3;11.8
76043;PMS7003;64740;34.694;33.088;2022-12-18T00:59:58;18.5;16.1;11.9
76043;PMS7003;64740;34.694;33.088;2022-12-18T01:04:34;16.3;14.2;10.7
76043;PMS7003;64740;34.694;33.088;2022-12-18T01:10:09;15;13.6;10
76043;PMS7003;64740;34.694;33.088;2022-12-18T01:15:11;15.4;13.5;9.9
76043;PMS7003;64740;34.694;33.088;2022-12-18T01:20:07;15.4;13.5;9.9
76043;PMS7003;64740;34.694;33.088;2022-12-18T01:24:48;14.5;13.5;10.2
76043;PMS7003;64740;34.694;33.088;2022-12-18T01:29:52;14.4;12.5;9.1
76043;PMS7003;64740;34.694;33.088;2022-12-18T01:35:16;13.7;11.8;8.9
76043;PMS7003;64740;34.694;33.088;2022-12-18T01:39:38;13.7;11.8;8.9
76043;PMS7003;64740;34.694;33.088;2022-12-18T01:45:04;13;11.5;8.3
76043;PMS7003;64740;34.694;33.088;2022-12-18T01:50:02;12.1;11.4;8.6
76043;PMS7003;64740;34.694;33.088;2022-12-18T01:55:03;12.3;11.2;8.1
76043;PMS7003;64740;34.694;33.088;2022-12-18T02:00:14;11.5;9.9;7.3
76043;PMS7003;64740;34.694;33.088;2022-12-18T02:05:04;11.5;9.9;7.3
76043;PMS7003;64740;34.694;33.088;2022-12-18T02:09:27;11.9;9.7;7.1
76043;PMS7003;64740;34.694;33.088;2022-12-18T02:14:54;10.6;8.9;6.6
76043;PMS7003;64740;34.694;33.088;2022-12-18T02:19:55;10.4;9.3;6.8
76043;PMS7003;64740;34.694;33.088;2022-12-18T02:25:06;10.7;8.9;6.6
76043;PMS7003;64740;34.694;33.088;2022-12-18T02:30:05;9.9;8.9;6.8
76043;PMS7003;64740;34.694;33.088;2022-12-18T02:35:05;9.3;8.3;6.3
76043;PMS7003;64740;34.694;33.088;2022-12-18T02:39:51;9.9;8.6;6.8
76043;PMS7003;64740;34.694;33.088;2022-12-18T02:44:41;8.5;7.7;6.1
76043;PMS7003;64740;34.694;33.088;2022-12-18T02:50:16;8.5;7.8;6.1
76043;PMS7003;64740;34.694;33.088;2022-12-18T02:55:08;8.5;7.8;6.1
76043;PMS7003;64740;34.694;33.088;2022-12-18T02:59:39;7.4;6.9;5.4
76043;PMS7003;64740;34.694;33.088;2022-12-18T03:04:49;8.6;7.3;5.5
76043;PMS7003;64740;34.694;33.088;2022-12-18T03:09:50;7.9;6.8;5.3
76043;PMS7003;64740;34.694;33.088;2022-12-18T03:15:13;7.7;6.5;5.3
76043;PMS7003;64740;34.694;33.088;2022-12-18T03:19:38;7.7;6.5;5.3
76043;PMS7003;64740;34.694;33.088;2022-12-18T03:25:03;8.4;6.9;5.5
76043;PMS7003;64740;34.694;33.088;2022-12-18T03:30:01;7.2;6.5;5
76043;PMS7003;64740;34.694;33.088;2022-12-18T03:34:39;6.8;6.5;5.3
76043;PMS7003;64740;34.694;33.088;2022-12-18T03:40:14;6.3;5.8;4.6
76043;PMS7003;64740;34.694;33.088;2022-12-18T03:45:04;6.3;5.8;4.6
76043;PMS7003;64740;34.694;33.088;2022-12-18T03:49:27;6.2;5.7;4.6
76043;PMS7003;64740;34.694;33.088;2022-12-18T03:54:48;6.9;6;4.5
76043;PMS7003;64740;34.694;33.088;2022-12-18T03:59:54;6.4;5.5;4.3
76043;PMS7003;64740;34.694;33.088;2022-12-18T04:05:14;5;4.2;3.3
76043;PMS7003;64740;34.694;33.088;2022-12-18T04:09:40;5;4.2;3.3
76043;PMS7003;64740;34.694;33.088;2022-12-18T04:14:26;5.7;4.9;3.7
76043;PMS7003;64740;34.694;33.088;2022-12-18T04:19:52;5;4.3;3.5
76043;PMS7003;64740;34.694;33.088;2022-12-18T04:24:26;5.2;4.4;3.6
76043;PMS7003;64740;34.694;33.088;2022-12-18T04:30:16;6;5.1;4.2
76043;PMS7003;64740;34.694;33.088;2022-12-18T04:35:06;6;5.1;4.2
76043;PMS7003;64740;34.694;33.088;2022-12-18T04:40:02;5.6;4.7;3.9
76043;PMS7003;64740;34.694;33.088;2022-12-18T04:44:38;5.5;4.3;3.5
76043;PMS7003;64740;34.694;33.088;2022-12-18T04:49:52;5.7;4.8;3.4
76043;PMS7003;64740;34.694;33.088;2022-12-18T04:55:16;5.1;4.5;3.7
76043;PMS7003;64740;34.694;33.088;2022-12-18T04:59:38;5.1;4.5;3.7
76043;PMS7003;64740;34.694;33.088;2022-12-18T05:05:02;4.7;3.8;3
76043;PMS7003;64740;34.694;33.088;2022-12-18T05:09:50;4.8;3.9;3.1
76043;PMS7003;64740;34.694;33.088;2022-12-18T05:14:40;5.5;4.4;3.4
76043;PMS7003;64740;34.694;33.088;2022-12-18T05:20:14;4.2;3.6;3
76043;PMS7003;64740;34.694;33.088;2022-12-18T05:25:04;4.2;3.6;3
76043;PMS7003;64740;34.694;33.088;2022-12-18T05:29:38;3.9;3.3;2.8
76043;PMS7003;64740;34.694;33.088;2022-12-18T05:34:36;3.3;3.1;2.4
76043;PMS7003;64740;34.694;33.088;2022-12-18T05:39:42;4;3.6;2.7
76043;PMS7003;64740;34.694;33.088;2022-12-18T05:45:14;3.8;3.3;2.7
76043;PMS7003;64740;34.694;33.088;2022-12-18T05:49:52;3.8;3.3;2.7
76043;PMS7003;64740;34.694;33.088;2022-12-18T05:54:26;3.7;3.3;2.6
76043;PMS7003;64740;34.694;33.088;2022-12-18T06:00:02;4.3;3.6;3
76043;PMS7003;64740;34.694;33.088;2022-12-18T06:04:26;5;4.2;3.3
76043;PMS7003;64740;34.694;33.088;2022-12-18T06:10:14;4.9;4.2;3.3
76043;PMS7003;64740;34.694;33.088;2022-12-18T06:15:02;4.9;4.2;3.3
76043;PMS7003;64740;34.694;33.088;2022-12-18T06:20:00;4.9;4.1;3.3
76043;PMS7003;64740;34.694;33.088;2022-12-18T06:24:50;4;3.4;2.7
76043;PMS7003;64740;34.694;33.088;2022-12-18T06:29:44;4.5;3.5;2.9
76043;PMS7003;64740;34.694;33.088;2022-12-18T06:35:16;4.9;4.1;3.4
76043;PMS7003;64740;34.694;33.088;2022-12-18T06:39:36;4.9;4.1;3.4
76043;PMS7003;64740;34.694;33.088;2022-12-18T06:45:02;4.7;4.2;3.4
76043;PMS7003;64740;34.694;33.088;2022-12-18T06:50:02;5.6;4.3;3.3
76043;PMS7003;64740;34.694;33.088;2022-12-18T06:54:26;4.4;3.7;3
76043;PMS7003;64740;34.694;33.088;2022-12-18T07:00:14;5.6;4.3;3.4
76043;PMS7003;64740;34.694;33.088;2022-12-18T07:05:05;5.6;4.3;3.4
76043;PMS7003;64740;34.694;33.088;2022-12-18T07:10:03;5.1;4.5;3.6
76043;PMS7003;64740;34.694;33.088;2022-12-18T07:14:50;4.9;4.3;3.4
76043;PMS7003;64740;34.694;33.088;2022-12-18T07:19:50;4.9;3.9;3.2
76043;PMS7003;64740;34.694;33.088;2022-12-18T07:25:16;7.2;6.3;4.8
76043;PMS7003;64740;34.694;33.088;2022-12-18T07:29:40;7.2;6.3;4.8
76043;PMS7003;64740;34.694;33.088;2022-12-18T07:34:36;7.9;6.1;4.9
76043;PMS7003;64740;34.694;33.088;2022-12-18T07:40:03;7.4;6;4.8
76043;PMS7003;64740;34.694;33.088;2022-12-18T07:44:38;6.7;6.2;5.3
76043;PMS7003;64740;34.694;33.088;2022-12-18T07:50:14;7.9;6.4;5.1
76043;PMS7003;64740;34.694;33.088;2022-12-18T07:55:07;7.9;6.4;5.1
76043;PMS7003;64740;34.694;33.088;2022-12-18T08:00:00;8.3;7.5;6
76043;PMS7003;64740;34.694;33.088;2022-12-18T08:04:38;10.7;9.5;7.2
76043;PMS7003;64740;34.694;33.088;2022-12-18T08:09:54;12;10.8;8.2
76043;PMS7003;64740;34.694;33.088;2022-12-18T08:15:16;13;11.3;8.3
76043;PMS7003;64740;34.694;33.088;2022-12-18T08:19:26;13;11.3;8.3
76043;PMS7003;64740;34.694;33.088;2022-12-18T08:24:48;12.3;11.1;8.2
76043;PMS7003;64740;34.694;33.088;2022-12-18T08:30:00;11.1;9.9;7.4
76043;PMS7003;64740;34.694;33.088;2022-12-18T08:34:50;11.2;9;6.8
76043;PMS7003;64740;34.694;33.088;2022-12-18T08:40:14;11.6;10.2;7.6
76043;PMS7003;64740;34.694;33.088;2022-12-18T08:45:07;11.6;10.2;7.6
76043;PMS7003;64740;34.694;33.088;2022-12-18T08:49:48;11;10.2;7.6
76043;PMS7003;64740;34.694;33.088;2022-12-18T08:54:27;10.2;9.7;7.6
76043;PMS7003;64740;34.694;33.088;2022-12-18T09:00:15;10.4;9.6;7.2
76043;PMS7003;64740;34.694;33.088;2022-12-18T09:05:14;10.9;9.6;7.4
76043;PMS7003;64740;34.694;33.088;2022-12-18T09:09:26;10.9;9.6;7.4
76043;PMS7003;64740;34.694;33.088;2022-12-18T09:14:50;9.9;8.8;7.1
76043;PMS7003;64740;34.694;33.088;2022-12-18T09:20:14;11.3;9.8;7.5
76043;PMS7003;64740;34.694;33.088;2022-12-18T09:24:48;11.3;9.8;7.5
76043;PMS7003;64740;34.694;33.088;2022-12-18T09:30:05;11.3;9.7;7.7
76043;PMS7003;64740;34.694;33.088;2022-12-18T09:35:06;11;9.5;6.7
76043;PMS7003;64740;34.694;33.088;2022-12-18T09:39:48;11.1;9.5;7.3
76043;PMS7003;64740;34.694;33.088;2022-12-18T09:44:48;11;10.1;7.9
76043;PMS7003;64740;34.694;33.088;2022-12-18T09:50:16;11.7;10.5;7.8
76043;PMS7003;64740;34.694;33.088;2022-12-18T09:55:05;11.7;10.5;7.8
76043;PMS7003;64740;34.694;33.088;2022-12-18T09:59:37;12.2;10.4;7.7
76043;PMS7003;64740;34.694;33.088;2022-12-18T10:04:36;12.4;10.9;8.2
76043;PMS7003;64740;34.694;33.088;2022-12-18T10:10:14;14.7;13.4;9.5
76043;PMS7003;64740;34.694;33.088;2022-12-18T10:14:50;14.7;13.4;9.5
76043;PMS7003;64740;34.694;33.088;2022-12-18T10:20:05;16.1;14.3;10.5
76043;PMS7003;64740;34.694;33.088;2022-12-18T10:25:03;17.3;15.8;11.6
76043;PMS7003;64740;34.694;33.088;2022-12-18T10:29:48;18.4;16.6;12.4
76043;PMS7003;64740;34.694;33.088;2022-12-18T10:34:26;18.5;16.6;12
76043;PMS7003;64740;34.694;33.088;2022-12-18T10:40:15;20.2;17.4;12.1
76043;PMS7003;64740;34.694;33.088;2022-12-18T10:45:16;20.9;17.7;12.6
76043;PMS7003;64740;34.694;33.088;2022-12-18T10:49:39;20.9;17.7;12.6
76043;PMS7003;64740;34.694;33.088;2022-12-18T10:54:47;20.6;17.3;12.4
76043;PMS7003;64740;34.694;33.088;2022-12-18T11:00:21;21.3;19.3;14.4
76043;PMS7003;64740;34.694;33.088;2022-12-18T11:04:36;21.3;19.3;14.4
76043;PMS7003;64740;34.694;33.088;2022-12-18T11:10:03;20.9;18.5;12.9
76043;PMS7003;64740;34.694;33.088;2022-12-18T11:15:03;21.1;18.8;13.5
76043;PMS7003;64740;34.694;33.088;2022-12-18T11:19:51;21.7;18.8;14.2
76043;PMS7003;64740;34.694;33.088;2022-12-18T11:24:36;20.8;18.6;13
76043;PMS7003;64740;34.694;33.088;2022-12-18T11:30:20;21.8;18.9;13.1
76043;PMS7003;64740;34.694;33.088;2022-12-18T11:35:16;21.5;19.3;14.3
76043;PMS7003;64740;34.694;33.088;2022-12-18T11:39:29;21.5;19.3;14.3
76043;PMS7003;64740;34.694;33.088;2022-12-18T11:44:51;21.2;19.2;13.9
76043;PMS7003;64740;34.694;33.088;2022-12-18T11:50:16;20.4;18.3;13.1
76043;PMS7003;64740;34.694;33.088;2022-12-18T11:54:27;20.4;18.3;13.1
76043;PMS7003;64740;34.694;33.088;2022-12-18T12:00:10;22;19.5;13.7
76043;PMS7003;64740;34.694;33.088;2022-12-18T12:05:49;21;18.5;13.4
76043;PMS7003;64740;34.694;33.088;2022-12-18T12:09:53;21;18.5;13.4
76043;PMS7003;64740;34.694;33.088;2022-12-18T12:14:30;20.7;18;13.2
76043;PMS7003;64740;34.694;33.088;2022-12-18T12:20:15;22.3;19.4;14.4
76043;PMS7003;64740;34.694;33.088;2022-12-18T12:25:18;23.1;20.8;15.3
76043;PMS7003;64740;34.694;33.088;2022-12-18T12:29:42;23.1;20.8;15.3
76043;PMS7003;64740;34.694;33.088;2022-12-18T12:34:38;23;20.8;14.4
76043;PMS7003;64740;34.694;33.088;2022-12-18T12:40:16;22.5;19;13.3
76043;PMS7003;64740;34.694;33.088;2022-12-18T12:44:41;22.5;19;13.3
76043;PMS7003;64740;34.694;33.088;2022-12-18T12:49:53;24.7;21;14.9
76043;PMS7003;64740;34.694;33.088;2022-12-18T12:55:11;23.6;20.6;14.7
76043;PMS7003;64740;34.694;33.088;2022-12-18T12:59:51;24.5;21.7;15.6
76043;PMS7003;64740;34.694;33.088;2022-12-18T13:04:27;24.9;23.2;16.5
76043;PMS7003;64740;34.694;33.088;2022-12-18T13:10:25;24.1;21.8;16
76043;PMS7003;64740;34.694;33.088;2022-12-18T13:15:20;24.4;22.3;15.8
76043;PMS7003;64740;34.694;33.088;2022-12-18T13:19:27;24.4;22.3;15.8
76043;PMS7003;64740;34.694;33.088;2022-12-18T13:24:49;23;20.9;15.3
76043;PMS7003;64740;34.694;33.088;2022-12-18T13:30:14;23.3;20.9;15.7
76043;PMS7003;64740;34.694;33.088;2022-12-18T13:35:36;25.7;22.7;15.8
76043;PMS7003;64740;34.694;33.088;2022-12-18T13:40:57;24;21.9;15.8
76043;PMS7003;64740;34.694;33.088;2022-12-18T13:45:34;24;21.2;15.5
76043;PMS7003;64740;34.694;33.088;2022-12-18T13:49:49;24;21.2;15.5
76043;PMS7003;64740;34.694;33.088;2022-12-18T13:54:39;25.7;22.8;16.7
76043;PMS7003;64740;34.694;33.088;2022-12-18T14:00:22;25.5;22.6;16.3
76043;PMS7003;64740;34.694;33.088;2022-12-18T14:05:05;25.5;22.6;16.3
76043;PMS7003;64740;34.694;33.088;2022-12-18T14:09:27;24.8;22.2;16.1
76043;PMS7003;64740;34.694;33.088;2022-12-18T14:14:49;24.9;22.4;16.2
76043;PMS7003;64740;34.694;33.088;2022-12-18T14:20:12;25.3;22.6;16.2
76043;PMS7003;64740;34.694;33.088;2022-12-18T14:25:13;25.9;23.7;16.8
76043;PMS7003;64740;34.694;33.088;2022-12-18T14:30:25;26.4;24.1;17
76043;PMS7003;64740;34.694;33.088;2022-12-18T14:35:15;29.5;25.7;18.2
76043;PMS7003;64740;34.694;33.088;2022-12-18T14:39:27;29.5;25.7;18.2
76043;PMS7003;64740;34.694;33.088;2022-12-18T14:44:39;30.1;25.6;17.8
76043;PMS7003;64740;34.694;33.088;2022-12-18T14:50:17;32.8;27.6;19.6
76043;PMS7003;64740;34.694;33.088;2022-12-18T14:55:05;32.8;27.6;19.6
76043;PMS7003;64740;34.694;33.088;2022-12-18T14:59:49;35.1;29.8;19.9
76043;PMS7003;64740;34.694;33.088;2022-12-18T15:04:59;32.7;28.9;19.8
76043;PMS7003;64740;34.694;33.088;2022-12-18T15:10:07;32.4;28.1;19.3
76043;PMS7003;64740;34.694;33.088;2022-12-18T15:15:47;36;30.9;21.2
76043;PMS7003;64740;34.694;33.088;2022-12-18T15:20:15;35.9;30.8;21.3
76043;PMS7003;64740;34.694;33.088;2022-12-18T15:25:21;37.4;31.5;21
76043;PMS7003;64740;34.694;33.088;2022-12-18T15:29:59;37.4;31.5;21
76043;PMS7003;64740;34.694;33.088;2022-12-18T15:34:39;39.9;33.4;22.2
76043;PMS7003;64740;34.694;33.088;2022-12-18T15:40:13;36.5;30.4;20.4
76043;PMS7003;64740;34.694;33.088;2022-12-18T15:45:05;36.5;30.4;20.4
76043;PMS7003;64740;34.694;33.088;2022-12-18T15:49:27;39.6;33.2;22.6
76043;PMS7003;64740;34.694;33.088;2022-12-18T15:54:51;34;28.3;18.4
76043;PMS7003;64740;34.694;33.088;2022-12-18T16:00:05;32.3;27.5;17.4
76043;PMS7003;64740;34.694;33.088;2022-12-18T16:05:09;33.5;29.8;20.4
76043;PMS7003;64740;34.694;33.088;2022-12-18T16:10:15;29.8;26.2;18.2
76043;PMS7003;64740;34.694;33.088;2022-12-18T16:15:17;28.7;25.9;18.1
76043;PMS7003;64740;34.694;33.088;2022-12-18T16:19:49;28.7;25.9;18.1
76043;PMS7003;64740;34.694;33.088;2022-12-18T16:24:51;29;25.2;17.6
76043;PMS7003;64740;34.694;33.088;2022-12-18T16:30:15;21.9;20.1;14.6
76043;PMS7003;64740;34.694;33.088;2022-12-18T16:35:09;21.9;20.1;14.6
76043;PMS7003;64740;34.694;33.088;2022-12-18T16:39:27;21.7;19.2;15.1
76043;PMS7003;64740;34.694;33.088;2022-12-18T16:44:51;23.3;20.3;15
76043;PMS7003;64740;34.694;33.088;2022-12-18T16:50:05;23.1;20.6;15.4
76043;PMS7003;64740;34.694;33.088;2022-12-18T16:55:05;23.7;21.7;15.6
76043;PMS7003;64740;34.694;33.088;2022-12-18T17:00:17;27.6;23.3;16.3
76043;PMS7003;64740;34.694;33.088;2022-12-18T17:05:15;26.3;23.8;16.9
76043;PMS7003;64740;34.694;33.088;2022-12-18T17:09:49;26.3;23.8;16.9
76043;PMS7003;64740;34.694;33.088;2022-12-18T17:14:51;25.2;22.2;16.5
76043;PMS7003;64740;34.694;33.088;2022-12-18T17:20:15;21.8;19.7;13.5
76043;PMS7003;64740;34.694;33.088;2022-12-18T17:25:03;21.8;19.7;13.5
76043;PMS7003;64740;34.694;33.088;2022-12-18T17:29:39;22.9;21.1;15.5
76043;PMS7003;64740;34.694;33.088;2022-12-18T17:34:27;22.7;21;15.6
76043;PMS7003;64740;34.694;33.088;2022-12-18T17:40:05;23.1;20.4;15
76043;PMS7003;64740;34.694;33.088;2022-12-18T17:45:17;21.9;19.7;14.2
76043;PMS7003;64740;34.694;33.088;2022-12-18T17:49:27;21.9;19.7;14.2
76043;PMS7003;64740;34.694;33.088;2022-12-18T17:54:39;22.4;20;14.8
76043;PMS7003;64740;34.694;33.088;2022-12-18T17:59:51;23.6;21;15.1
76043;PMS7003;64740;34.694;33.088;2022-12-18T18:04:39;22.5;20.3;14.3
76043;PMS7003;64740;34.694;33.088;2022-12-18T18:10:17;23.4;21;14.7
76043;PMS7003;64740;34.694;33.088;2022-12-18T18:14:53;23.4;21;14.7
76043;PMS7003;64740;34.694;33.088;2022-12-18T18:19:27;22.5;19.4;13.9
76043;PMS7003;64740;34.694;33.088;2022-12-18T18:25:01;21.8;19.8;14.4
76043;PMS7003;64740;34.694;33.088;2022-12-18T18:30:05;20.6;18.5;13.8
76043;PMS7003;64740;34.694;33.088;2022-12-18T18:35:15;20.8;19.1;13.3
76043;PMS7003;64740;34.694;33.088;2022-12-18T18:39:27;20.8;19.1;13.3
76043;PMS7003;64740;34.694;33.088;2022-12-18T18:44:51;20.4;17.8;13
76043;PMS7003;64740;34.694;33.088;2022-12-18T18:49:51;20;18.3;13.5
76043;PMS7003;64740;34.694;33.088;2022-12-18T18:54:55;19.4;17.4;13
76043;PMS7003;64740;34.694;33.088;2022-12-18T19:00:15;19.2;17.3;13
76043;PMS7003;64740;34.694;33.088;2022-12-18T19:05:03;19.2;17.3;13
76043;PMS7003;64740;34.694;33.088;2022-12-18T19:09:27;18.9;16.6;12.7
76043;PMS7003;64740;34.694;33.088;2022-12-18T19:15:01;17.9;16;12.2
76043;PMS7003;64740;34.694;33.088;2022-12-18T19:20:03;18.8;16.5;12.4
76043;PMS7003;64740;34.694;33.088;2022-12-18T19:25:17;17.7;16.1;12.2
76043;PMS7003;64740;34.694;33.088;2022-12-18T19:29:51;17.7;16.1;12.2
76043;PMS7003;64740;34.694;33.088;2022-12-18T19:34:27;18.2;16.2;11.9
76043;PMS7003;64740;34.694;33.088;2022-12-18T19:39:27;15.6;14.1;10.4
76043;PMS7003;64740;34.694;33.088;2022-12-18T19:44:27;18.5;16.5;12.5
76043;PMS7003;64740;34.694;33.088;2022-12-18T19:50:15;17.2;15.7;12
76043;PMS7003;64740;34.694;33.088;2022-12-18T19:54:53;17.2;15.7;12
76043;PMS7003;64740;34.694;33.088;2022-12-18T19:59:27;19.1;16.8;12.2
76043;PMS7003;64740;34.694;33.088;2022-12-18T20:04:51;18;16.1;12
76043;PMS7003;64740;34.694;33.088;2022-12-18T20:10:09;16.7;15.2;10.8
76043;PMS7003;64740;34.694;33.088;2022-12-18T20:15:17;15.8;14.9;11.4
76043;PMS7003;64740;34.694;33.088;2022-12-18T20:19:37;15.8;14.9;11.4
76043;PMS7003;64740;34.694;33.088;2022-12-18T20:25:05;16.3;14.6;11
76043;PMS7003;64740;34.694;33.088;2022-12-18T20:29:37;16.7;14.8;11
76043;PMS7003;64740;34.694;33.088;2022-12-18T20:35:07;16.2;13.8;10.2
76043;PMS7003;64740;34.694;33.088;2022-12-18T20:40:03;16.3;14.3;10.7
76043;PMS7003;64740;34.694;33.088;2022-12-18T20:44:53;15.6;14;10.8
76043;PMS7003;64740;34.694;33.088;2022-12-18T20:49:27;15.4;14;10.2
76043;PMS7003;64740;34.694;33.088;2022-12-18T20:55:03;15;13.7;10.2
76043;PMS7003;64740;34.694;33.088;2022-12-18T21:00:06;16.4;13.8;10.7
76043;PMS7003;64740;34.694;33.088;2022-12-18T21:05:15;15.3;13.5;9.8
76043;PMS7003;64740;34.694;33.088;2022-12-18T21:09:27;15.3;13.5;9.8
76043;PMS7003;64740;34.694;33.088;2022-12-18T21:14:53;14.8;13.6;10.5
76043;PMS7003;64740;34.694;33.088;2022-12-18T21:19:49;14.4;12.7;9.5
76043;PMS7003;64740;34.694;33.088;2022-12-18T21:24:39;14.3;12.6;9.9
76043;PMS7003;64740;34.694;33.088;2022-12-18T21:30:17;14.1;12.4;9.5
76043;PMS7003;64740;34.694;33.088;2022-12-18T21:34:53;14.1;12.4;9.5
76043;PMS7003;64740;34.694;33.088;2022-12-18T21:39:27;13.8;12.6;9.5
76043;PMS7003;64740;34.694;33.088;2022-12-18T21:45:01;14.9;14;10.6
76043;PMS7003;64740;34.694;33.088;2022-12-18T21:49:53;14.8;12.9;10
76043;PMS7003;64740;34.694;33.088;2022-12-18T21:55:13;15.5;13;9.9
76043;PMS7003;64740;34.694;33.088;2022-12-18T21:59:27;15.5;13;9.9
76043;PMS7003;64740;34.694;33.088;2022-12-18T22:05:03;14.3;12.8;9.2
76043;PMS7003;64740;34.694;33.088;2022-12-18T22:09:47;14.6;12.2;8.8
76043;PMS7003;64740;34.694;33.088;2022-12-18T22:14:27;14;11.9;9.1
76043;PMS7003;64740;34.694;33.088;2022-12-18T22:20:13;13.4;11.8;9.1
76043;PMS7003;64740;34.694;33.088;2022-12-18T22:24:47;13.4;11.8;9.1
76043;PMS7003;64740;34.694;33.088;2022-12-18T22:29:57;13.5;12.4;9.4
76043;PMS7003;64740;34.694;33.088;2022-12-18T22:34:55;14.1;12.3;9.3
76043;PMS7003;64740;34.694;33.088;2022-12-18T22:39:57;13.1;11.6;8.6
76043;PMS7003;64740;34.694;33.088;2022-12-18T22:45:11;11.9;10.3;8
76043;PMS7003;64740;34.694;33.088;2022-12-18T22:49:43;11.9;10.3;8
76043;PMS7003;64740;34.694;33.088;2022-12-18T22:55:09;13.5;11.7;8.5
76043;PMS7003;64740;34.694;33.088;2022-12-18T22:59:43;12.4;10.6;7.9
76043;PMS7003;64740;34.694;33.088;2022-12-18T23:04:33;11.5;10.5;8.1
76043;PMS7003;64740;34.694;33.088;2022-12-18T23:10:11;11.5;10.5;7.7
76043;PMS7003;64740;34.694;33.088;2022-12-18T23:14:39;11.5;10.5;7.7
76043;PMS7003;64740;34.694;33.088;2022-12-18T23:19:45;11.2;9.5;7.3
76043;PMS7003;64740;34.694;33.088;2022-12-18T23:24:59;10.7;10.1;7.3
76043;PMS7003;64740;34.694;33.088;2022-12-18T23:30:03;10.5;9.2;6.8
76043;PMS7003;64740;34.694;33.088;2022-12-18T23:35:11;9.9;8.5;6.6
76043;PMS7003;64740;34.694;33.088;2022-12-18T23:39:35;9.9;8.5;6.6
76043;PMS7003;64740;34.694;33.088;2022-12-18T23:44:47;10.7;8.8;7.1
76043;PMS7003;64740;34.694;33.088;2022-12-18T23:49:27;8.3;7.7;6.1
76043;PMS7003;64740;34.694;33.088;2022-12-18T23:54:27;9.1;8.2;6.4
